Time;durP1;ratioP1;P1;durP2;ratioP2;P2;SDS_P1;SDS_P2;PMS_P1;PMS_P2;Temp;Humidity;BMP_temperature;BMP_pressure;BME280_temperature;BME280_humidity;BME280_pressure;Samples;Min_cycle;Max_cycle;Signal;HPM_P1;HPM_P2
2022/06/15 00:00:16;;;;;;;1.63;1.07;;;;;23.40;100786.00;;;;2069678;28;20245;-56
2022/06/15 00:01:21;;;;;;;1.20;1.10;;;;;23.30;100791.00;;;;2070720;28;20229;-57
2022/06/15 00:02:21;;;;;;;1.90;1.00;;;;;23.40;100782.00;;;;2061483;28;20837;-57
2022/06/15 00:03:22;;;;;;;2.00;1.30;;;;;23.40;100782.00;;;;2062344;28;20233;-57
2022/06/15 00:04:22;;;;;;;1.20;1.10;;;;;23.40;100784.00;;;;2070447;28;20272;-56
2022/06/15 00:05:23;;;;;;;1.50;1.30;;;;;23.40;100774.00;;;;2069261;28;20222;-54
2022/06/15 00:06:28;;;;;;;1.13;0.97;;;;;23.40;100771.00;;;;2069901;28;20225;-56
2022/06/15 00:07:28;;;;;;;1.27;1.10;;;;;23.40;100774.00;;;;2061733;28;20277;-56
2022/06/15 00:08:28;;;;;;;1.50;1.10;;;;;23.40;100775.00;;;;2069859;28;20690;-57
2022/06/15 00:09:29;;;;;;;1.30;1.10;;;;;23.40;100768.00;;;;2070372;28;20641;-57
2022/06/15 00:10:29;;;;;;;1.47;0.93;;;;;23.20;100759.00;;;;2070398;28;20619;-57
2022/06/15 00:11:31;;;;;;;2.47;1.30;;;;;23.40;100759.00;;;;2070155;28;20281;-56
2022/06/15 00:12:32;;;;;;;1.65;1.10;;;;;23.40;100760.00;;;;2069390;28;20218;-57
2022/06/15 00:13:32;;;;;;;1.40;1.00;;;;;23.40;100756.00;;;;2069672;28;20218;-57
2022/06/15 00:14:32;;;;;;;1.30;0.90;;;;;23.40;100755.00;;;;2069877;28;20214;-57
2022/06/15 00:15:33;;;;;;;1.17;1.00;;;;;23.40;100756.00;;;;2060390;28;20839;-56
2022/06/15 00:16:34;;;;;;;1.20;1.00;;;;;23.40;100753.00;;;;2069548;28;20566;-55
2022/06/15 00:17:34;;;;;;;1.67;1.10;;;;;23.40;100752.00;;;;2069502;28;20449;-57
2022/06/15 00:18:35;;;;;;;1.30;1.10;;;;;23.40;100755.00;;;;2069639;28;20218;-56
2022/06/15 00:19:35;;;;;;;1.53;1.07;;;;;23.40;100745.00;;;;2070388;28;20329;-56
2022/06/15 00:20:37;;;;;;;1.40;1.30;;;;;23.40;100755.00;;;;2071880;28;20218;-59
2022/06/15 00:21:37;;;;;;;2.85;1.38;;;;;23.40;100755.00;;;;2071912;28;20210;-58
2022/06/15 00:22:40;;;;;;;1.43;1.00;;;;;23.40;100750.00;;;;2071701;28;20712;-62
2022/06/15 00:23:40;;;;;;;1.30;1.20;;;;;23.40;100759.00;;;;2071735;28;20558;-55
2022/06/15 00:24:41;;;;;;;1.37;1.27;;;;;23.40;100764.00;;;;2071870;28;20229;-60
2022/06/15 00:25:41;;;;;;;1.60;1.20;;;;;23.40;100764.00;;;;2071765;28;20883;-56
2022/06/15 00:26:41;;;;;;;1.43;1.00;;;;;23.40;100770.00;;;;2071838;28;20744;-55
2022/06/15 00:27:42;;;;;;;1.13;1.00;;;;;23.40;100768.00;;;;2076069;28;20690;-61
2022/06/15 00:28:42;;;;;;;2.30;1.10;;;;;23.40;100769.00;;;;2079340;28;20217;-59
2022/06/15 00:29:42;;;;;;;1.70;1.13;;;;;23.40;100760.00;;;;2079226;28;20279;-56
2022/06/15 00:30:44;;;;;;;1.23;1.13;;;;;23.40;100767.00;;;;2079408;28;20222;-59
2022/06/15 00:31:45;;;;;;;1.65;1.00;;;;;23.40;100763.00;;;;2059796;28;20698;-56
2022/06/15 00:32:45;;;;;;;1.30;1.00;;;;;23.40;100757.00;;;;2069225;28;20234;-57
2022/06/15 00:33:45;;;;;;;1.63;1.07;;;;;23.40;100766.00;;;;2076998;28;20803;-57
2022/06/15 00:34:46;;;;;;;1.30;1.00;;;;;23.40;100758.00;;;;2077451;28;20218;-56
2022/06/15 00:35:57;;;;;;;1.60;1.10;;;;;23.40;100767.00;;;;2077155;28;20214;-57
2022/06/15 00:36:58;;;;;;;1.17;1.00;;;;;23.30;100763.00;;;;2077432;28;20216;-57
2022/06/15 00:37:58;;;;;;;1.20;1.10;;;;;23.40;100756.00;;;;2068282;28;20573;-61
2022/06/15 00:38:59;;;;;;;3.40;1.27;;;;;23.40;100753.00;;;;2077601;28;20264;-59
2022/06/15 00:39:59;;;;;;;1.47;1.20;;;;;23.40;100759.00;;;;2077916;28;20239;-58
2022/06/15 00:41:00;;;;;;;2.00;1.33;;;;;23.40;100752.00;;;;2078358;28;20462;-57
2022/06/15 00:42:01;;;;;;;1.40;1.03;;;;;23.40;100770.00;;;;2076805;28;20220;-57
2022/06/15 00:43:01;;;;;;;1.40;1.10;;;;;23.40;100755.00;;;;2077939;28;20472;-57
2022/06/15 00:44:24;;;;;;;1.47;1.10;;;;;23.40;100760.00;;;;2078407;28;20216;-57
2022/06/15 00:45:24;;;;;;;1.48;1.20;;;;;23.40;100758.00;;;;2076412;28;20217;-57
2022/06/15 00:46:31;;;;;;;1.90;1.13;;;;;23.40;100754.00;;;;2077945;28;20226;-57
2022/06/15 00:47:33;;;;;;;1.92;1.30;;;;;23.30;100747.00;;;;2076926;28;20701;-58
2022/06/15 00:48:34;;;;;;;1.52;1.10;;;;;23.30;100752.00;;;;2069667;28;20218;-57
2022/06/15 00:49:59;;;;;;;1.30;1.10;;;;;23.30;100750.00;;;;2077411;28;20725;-57
2022/06/15 00:50:59;;;;;;;1.42;1.30;;;;;23.30;100746.00;;;;2077255;28;20324;-57
2022/06/15 00:52:04;;;;;;;1.60;1.20;;;;;23.30;100746.00;;;;2072059;28;20252;-58
2022/06/15 00:53:07;;;;;;;1.92;1.15;;;;;23.10;100745.00;;;;2076519;28;20228;-57
2022/06/15 00:54:08;;;;;;;1.50;1.40;;;;;23.30;100685.00;;;;2078176;28;20852;-57
2022/06/15 00:55:27;;;;;;;1.20;1.10;;;;;23.30;100738.00;;;;2068868;28;20222;-57
2022/06/15 00:56:28;;;;;;;1.15;1.00;;;;;23.30;100743.00;;;;2072124;28;20232;-57
2022/06/15 00:57:28;;;;;;;1.40;1.00;;;;;23.40;100743.00;;;;2060768;28;20238;-57
2022/06/15 00:58:29;;;;;;;1.20;1.03;;;;;23.30;100732.00;;;;2050483;28;20451;-57
2022/06/15 00:59:54;;;;;;;1.40;1.00;;;;;23.30;100740.00;;;;2068864;28;20631;-57
2022/06/15 01:00:56;;;;;;;1.20;1.00;;;;;23.30;100726.00;;;;2070299;28;20295;-57
2022/06/15 01:01:57;;;;;;;1.83;1.30;;;;;23.30;100727.00;;;;2078062;28;20217;-57
2022/06/15 01:02:57;;;;;;;1.60;1.13;;;;;23.30;100730.00;;;;2078187;28;20217;-57
2022/06/15 01:03:57;;;;;;;1.90;1.37;;;;;23.30;100728.00;;;;2077155;28;20213;-58
2022/06/15 01:04:59;;;;;;;1.13;0.93;;;;;23.30;100716.00;;;;2076506;28;20236;-58
2022/06/15 01:06:22;;;;;;;1.77;1.05;;;;;23.30;100731.00;;;;2059418;28;20215;-57
2022/06/15 01:07:35;;;;;;;1.00;0.82;;;;;23.30;100731.00;;;;2071324;28;20734;-57
2022/06/15 01:08:46;;;;;;;1.98;1.10;;;;;23.30;100728.00;;;;2070130;28;20221;-56
2022/06/15 01:09:56;;;;;;;1.27;1.08;;;;;23.30;100721.00;;;;2061940;28;20805;-57
2022/06/15 01:11:18;;;;;;;1.30;1.00;;;;;23.30;100721.00;;;;2062804;28;20828;-58
2022/06/15 01:12:27;;;;;;;1.50;1.00;;;;;23.30;100730.00;;;;2066213;28;20722;-58
2022/06/15 01:13:48;;;;;;;1.40;0.82;;;;;23.30;100734.00;;;;2071820;28;20213;-57
2022/06/15 01:14:55;;;;;;;1.85;1.15;;;;;23.30;100739.00;;;;2076771;28;20323;-57
2022/06/15 01:16:01;;;;;;;1.20;0.98;;;;;23.30;100738.00;;;;2076472;28;20225;-57
2022/06/15 01:17:20;;;;;;;1.58;1.25;;;;;23.30;100739.00;;;;2068723;28;20660;-57
2022/06/15 01:18:35;;;;;;;1.50;0.90;;;;;23.30;100734.00;;;;2071545;28;20384;-57
2022/06/15 01:19:57;;;;;;;1.20;1.10;;;;;23.30;100734.00;;;;2076921;28;20442;-57
2022/06/15 01:21:18;;;;;;;1.42;1.17;;;;;23.30;100727.00;;;;2077215;28;20598;-58
2022/06/15 01:22:34;;;;;;;1.77;1.30;;;;;23.30;100737.00;;;;2073014;28;20280;-58
2022/06/15 01:23:39;;;;;;;1.20;1.10;;;;;23.30;100750.00;;;;2077701;28;20213;-57
2022/06/15 01:24:58;;;;;;;1.50;1.13;;;;;23.30;100739.00;;;;2076789;28;20719;-57
2022/06/15 01:26:23;;;;;;;1.40;1.10;;;;;23.30;100736.00;;;;2069668;28;20585;-58
2022/06/15 01:27:48;;;;;;;1.45;1.10;;;;;23.30;100746.00;;;;2071818;28;20225;-57
2022/06/15 01:28:51;;;;;;;1.60;1.20;;;;;23.30;100746.00;;;;2074189;28;20687;-57
2022/06/15 01:29:57;;;;;;;1.38;1.20;;;;;23.30;100747.00;;;;2061342;28;20596;-57
2022/06/15 01:31:12;;;;;;;1.38;1.27;;;;;23.30;100749.00;;;;2062133;28;20306;-58
2022/06/15 01:32:17;;;;;;;1.55;1.30;;;;;23.30;100752.00;;;;2070178;28;20869;-56
2022/06/15 01:33:35;;;;;;;1.10;0.90;;;;;23.40;100748.00;;;;2077079;28;20686;-57
2022/06/15 01:34:52;;;;;;;1.40;1.20;;;;;23.40;100741.00;;;;2069740;28;20210;-58
2022/06/15 01:36:03;;;;;;;1.40;1.13;;;;;23.30;100739.00;;;;2062763;28;20718;-57
2022/06/15 01:38:01;;;;;;;1.50;1.10;;;;;23.30;100745.00;;;;2060479;28;20214;-56
2022/06/15 01:39:11;;;;;;;1.42;1.15;;;;;23.30;100742.00;;;;2049344;28;20266;-57
2022/06/15 01:40:33;;;;;;;1.50;1.20;;;;;23.30;100739.00;;;;2051206;28;20270;-54
2022/06/15 01:41:36;;;;;;;1.38;1.20;;;;;23.30;100734.00;;;;2044171;28;20212;-57
2022/06/15 01:42:41;;;;;;;1.83;1.48;;;;;23.30;100734.00;;;;2043605;28;20339;-55
2022/06/15 01:43:45;;;;;;;2.58;1.48;;;;;23.30;100735.00;;;;2059033;28;20237;-58
2022/06/15 01:44:50;;;;;;;2.65;1.20;;;;;23.30;100733.00;;;;2060037;28;20219;-56
2022/06/15 01:45:51;;;;;;;1.85;1.20;;;;;23.30;100733.00;;;;2059763;28;20225;-57
2022/06/15 01:46:51;;;;;;;1.57;1.10;;;;;23.30;100739.00;;;;2068878;28;20721;-57
2022/06/15 01:47:51;;;;;;;1.40;1.13;;;;;23.30;100736.00;;;;2067649;28;20210;-57
2022/06/15 01:48:52;;;;;;;1.10;1.00;;;;;23.30;100736.00;;;;2060523;28;20700;-56
2022/06/15 01:50:03;;;;;;;1.37;1.10;;;;;23.30;100739.00;;;;2069535;28;20202;-56
2022/06/15 01:51:08;;;;;;;1.60;1.30;;;;;23.30;100700.00;;;;2062558;28;20214;-56
2022/06/15 01:52:08;;;;;;;1.70;1.40;;;;;23.30;100736.00;;;;2062110;28;20223;-57
2022/06/15 01:53:24;;;;;;;1.63;1.10;;;;;23.30;100740.00;;;;2053386;28;20230;-57
2022/06/15 01:54:28;;;;;;;2.60;1.25;;;;;23.30;100737.00;;;;2056832;28;20415;-57
2022/06/15 01:55:30;;;;;;;1.50;1.00;;;;;23.30;100739.00;;;;2060617;28;20277;-58
2022/06/15 01:56:36;;;;;;;1.50;1.17;;;;;23.30;100737.00;;;;2061277;28;21217;-57
2022/06/15 01:57:37;;;;;;;1.30;1.20;;;;;23.30;100632.00;;;;2053106;28;20712;-57
2022/06/15 01:58:39;;;;;;;2.80;1.50;;;;;23.30;100739.00;;;;2053004;28;20298;-57
2022/06/15 01:59:44;;;;;;;1.55;1.20;;;;;23.30;100732.00;;;;2053474;28;20569;-57
2022/06/15 02:00:47;;;;;;;1.17;0.93;;;;;23.30;100739.00;;;;2068710;28;20223;-56
2022/06/15 02:02:09;;;;;;;2.17;1.10;;;;;23.30;100736.00;;;;2066051;28;20233;-57
2022/06/15 02:03:11;;;;;;;1.58;1.30;;;;;23.30;100731.00;;;;2069506;28;20232;-57
2022/06/15 02:04:37;;;;;;;1.95;0.90;;;;;23.30;100739.00;;;;2069420;28;20298;-58
2022/06/15 02:06:10;;;;;;;1.55;1.10;;;;;23.30;100740.00;;;;2069783;28;20221;-57
2022/06/15 02:07:51;;;;;;;2.08;1.00;;;;;23.30;100732.00;;;;2066940;28;20305;-56
2022/06/15 02:09:20;;;;;;;1.45;1.20;;;;;23.30;100734.00;;;;2058742;28;20280;-58
2022/06/15 02:10:33;;;;;;;1.85;1.20;;;;;23.30;100724.00;;;;2065349;28;20655;-57
2022/06/15 02:11:34;;;;;;;1.50;1.23;;;;;23.30;100728.00;;;;2070500;28;20294;-57
2022/06/15 02:12:42;;;;;;;1.10;0.98;;;;;23.30;100728.00;;;;2061853;28;20219;-57
2022/06/15 02:14:03;;;;;;;1.17;1.05;;;;;23.30;100727.00;;;;2063536;28;20218;-56
2022/06/15 02:15:04;;;;;;;1.27;1.17;;;;;23.30;100718.00;;;;2064509;28;20231;-57
2022/06/15 02:16:08;;;;;;;1.40;1.10;;;;;23.30;100721.00;;;;2053535;28;20220;-57
2022/06/15 02:17:15;;;;;;;1.67;1.25;;;;;23.30;100716.00;;;;2054631;28;20230;-57
2022/06/15 02:18:17;;;;;;;1.20;1.10;;;;;23.30;100719.00;;;;2061379;28;20805;-57
2022/06/15 02:19:18;;;;;;;1.25;1.13;;;;;23.30;100719.00;;;;2054497;28;20219;-57
2022/06/15 02:20:24;;;;;;;1.52;1.00;;;;;23.30;100719.00;;;;2054002;28;20215;-57
2022/06/15 02:21:24;;;;;;;2.13;1.27;;;;;23.30;100710.00;;;;2055371;28;20273;-58
2022/06/15 02:22:27;;;;;;;1.40;1.10;;;;;23.30;100716.00;;;;2062638;28;20715;-57
2022/06/15 02:23:27;;;;;;;1.30;0.90;;;;;23.30;100719.00;;;;2062835;28;20219;-57
2022/06/15 02:24:27;;;;;;;1.70;1.27;;;;;23.30;100722.00;;;;2062643;28;20317;-57
2022/06/15 02:25:32;;;;;;;2.40;1.40;;;;;23.30;100728.00;;;;2069558;28;20733;-57
2022/06/15 02:26:35;;;;;;;1.42;0.95;;;;;23.30;100720.00;;;;2062642;28;20306;-56
2022/06/15 02:27:36;;;;;;;1.30;1.00;;;;;23.30;100724.00;;;;2062847;28;20241;-57
2022/06/15 02:28:38;;;;;;;1.30;1.00;;;;;23.30;100717.00;;;;2062561;28;20685;-57
2022/06/15 02:29:39;;;;;;;1.25;1.15;;;;;23.30;100709.00;;;;2062202;28;20675;-57
2022/06/15 02:30:40;;;;;;;1.10;1.00;;;;;23.30;100724.00;;;;2062487;28;20233;-57
2022/06/15 02:31:41;;;;;;;1.40;1.10;;;;;23.30;100721.00;;;;2062433;28;20597;-58
2022/06/15 02:32:42;;;;;;;1.40;1.20;;;;;23.30;100719.00;;;;2061783;28;20214;-57
2022/06/15 02:33:53;;;;;;;1.67;1.10;;;;;23.30;100726.00;;;;2070638;28;20214;-57
2022/06/15 02:34:53;;;;;;;1.20;1.10;;;;;23.30;100724.00;;;;2071211;28;20690;-57
2022/06/15 02:35:54;;;;;;;2.30;1.00;;;;;23.30;100723.00;;;;2070172;28;20245;-57
2022/06/15 02:36:54;;;;;;;1.30;0.85;;;;;23.30;100718.00;;;;2070317;28;20276;-57
2022/06/15 02:37:55;;;;;;;1.63;1.30;;;;;23.30;100715.00;;;;2070447;28;20762;-57
2022/06/15 02:38:55;;;;;;;1.70;1.33;;;;;23.30;100721.00;;;;2070985;28;20586;-57
2022/06/15 02:39:55;;;;;;;1.53;1.10;;;;;23.30;100717.00;;;;2070581;28;20332;-57
2022/06/15 02:40:56;;;;;;;1.47;1.10;;;;;23.30;100715.00;;;;2070216;28;20722;-57
2022/06/15 02:41:58;;;;;;;1.17;0.90;;;;;23.30;100717.00;;;;2071026;28;20356;-57
2022/06/15 02:42:59;;;;;;;1.48;1.15;;;;;23.30;100714.00;;;;2070249;28;20218;-57
2022/06/15 02:44:00;;;;;;;1.10;0.90;;;;;23.30;100719.00;;;;2054431;28;20211;-57
2022/06/15 02:45:11;;;;;;;2.03;1.70;;;;;23.30;100681.00;;;;2046482;28;20347;-57
2022/06/15 02:46:12;;;;;;;1.35;0.95;;;;;23.20;100717.00;;;;2056369;28;20828;-57
2022/06/15 02:47:12;;;;;;;1.50;1.20;;;;;23.30;100714.00;;;;2061905;28;20226;-56
2022/06/15 02:48:13;;;;;;;1.60;1.37;;;;;23.30;100720.00;;;;2054500;28;20688;-57
2022/06/15 02:49:14;;;;;;;1.03;0.90;;;;;23.20;100701.00;;;;2054447;28;20289;-57
2022/06/15 02:50:18;;;;;;;1.50;1.33;;;;;23.20;100723.00;;;;2062221;28;20229;-56
2022/06/15 02:51:29;;;;;;;2.38;1.42;;;;;23.30;100724.00;;;;2063174;28;20466;-57
2022/06/15 02:52:37;;;;;;;1.95;1.48;;;;;23.30;100723.00;;;;2055676;28;20231;-57
2022/06/15 02:53:38;;;;;;;2.33;1.27;;;;;23.30;100727.00;;;;2047360;28;20223;-57
2022/06/15 02:54:40;;;;;;;1.87;1.10;;;;;23.30;100712.00;;;;2044678;28;20220;-57
2022/06/15 02:55:40;;;;;;;1.58;1.17;;;;;23.20;100707.00;;;;2053587;28;20232;-57
2022/06/15 02:56:41;;;;;;;1.93;1.30;;;;;23.20;100717.00;;;;2054510;28;20883;-56
2022/06/15 02:57:46;;;;;;;1.40;1.30;;;;;23.20;100715.00;;;;2051639;28;20700;-57
2022/06/15 02:58:48;;;;;;;1.50;1.05;;;;;23.20;100715.00;;;;2054397;28;20215;-56
2022/06/15 02:59:49;;;;;;;2.35;1.10;;;;;23.20;100716.00;;;;2055084;28;20697;-57
2022/06/15 03:00:50;;;;;;;1.00;0.90;;;;;23.20;100715.00;;;;2062345;28;20219;-57
2022/06/15 03:01:50;;;;;;;1.13;1.00;;;;;23.20;100716.00;;;;2070085;28;20267;-57
2022/06/15 03:02:50;;;;;;;1.73;1.10;;;;;23.20;100713.00;;;;2070881;28;20702;-61
2022/06/15 03:03:51;;;;;;;1.60;1.27;;;;;23.20;100711.00;;;;2070941;28;20217;-60
2022/06/15 03:04:51;;;;;;;1.40;1.30;;;;;23.20;100705.00;;;;2071173;28;20217;-58
2022/06/15 03:05:51;;;;;;;1.33;1.10;;;;;23.20;100713.00;;;;2069990;28;20550;-57
2022/06/15 03:06:52;;;;;;;2.00;1.33;;;;;23.20;100709.00;;;;2070143;28;20266;-58
2022/06/15 03:07:52;;;;;;;2.60;1.50;;;;;23.20;100712.00;;;;2070208;28;20214;-57
2022/06/15 03:08:53;;;;;;;1.40;1.00;;;;;23.20;100709.00;;;;2071272;28;20218;-58
2022/06/15 03:09:53;;;;;;;2.10;1.10;;;;;23.20;100709.00;;;;2070231;28;20210;-57
2022/06/15 03:10:54;;;;;;;2.00;1.23;;;;;23.20;100712.00;;;;2068393;28;20707;-56
2022/06/15 03:11:54;;;;;;;1.87;1.33;;;;;23.20;100717.00;;;;2070112;28;20560;-56
2022/06/15 03:12:55;;;;;;;1.60;1.30;;;;;23.20;100713.00;;;;2069954;28;20765;-57
2022/06/15 03:13:55;;;;;;;1.23;1.10;;;;;23.20;100704.00;;;;2070241;28;20596;-59
2022/06/15 03:14:55;;;;;;;1.20;1.10;;;;;23.20;100715.00;;;;2070325;28;20218;-57
2022/06/15 03:15:59;;;;;;;1.70;1.13;;;;;23.20;100720.00;;;;2068041;28;20225;-57
2022/06/15 03:17:00;;;;;;;2.38;1.20;;;;;23.20;100713.00;;;;2061001;28;20719;-57
2022/06/15 03:18:00;;;;;;;1.43;1.00;;;;;23.20;100712.00;;;;2061392;28;20314;-57
2022/06/15 03:19:01;;;;;;;1.80;1.13;;;;;23.20;100725.00;;;;2070246;28;20948;-57
2022/06/15 03:20:01;;;;;;;1.43;1.10;;;;;23.20;100730.00;;;;2071039;28;20242;-57
2022/06/15 03:21:02;;;;;;;1.40;1.30;;;;;23.20;100725.00;;;;2069940;28;20297;-57
2022/06/15 03:22:02;;;;;;;2.53;1.30;;;;;23.20;100722.00;;;;2070125;28;20213;-57
2022/06/15 03:23:03;;;;;;;1.20;1.10;;;;;23.20;100718.00;;;;2077883;28;20575;-57
2022/06/15 03:24:04;;;;;;;1.40;1.30;;;;;23.20;100719.00;;;;2078961;28;20201;-56
2022/06/15 03:25:04;;;;;;;2.10;1.50;;;;;23.20;100722.00;;;;2078881;28;20216;-57
2022/06/15 03:26:05;;;;;;;1.87;1.20;;;;;23.20;100717.00;;;;2078015;28;20847;-57
2022/06/15 03:27:05;;;;;;;1.30;1.20;;;;;23.20;100717.00;;;;2078968;28;20848;-57
2022/06/15 03:28:06;;;;;;;1.23;1.13;;;;;23.20;100721.00;;;;2078139;28;20271;-58
2022/06/15 03:29:06;;;;;;;2.00;1.10;;;;;23.20;100721.00;;;;2078424;28;20206;-56
2022/06/15 03:30:07;;;;;;;1.57;1.30;;;;;23.20;100732.00;;;;2079001;28;20553;-57
2022/06/15 03:31:08;;;;;;;2.47;1.10;;;;;23.20;100721.00;;;;2078381;28;20220;-58
2022/06/15 03:32:12;;;;;;;1.20;1.10;;;;;23.20;100724.00;;;;2078932;28;20217;-57
2022/06/15 03:33:12;;;;;;;1.85;1.20;;;;;23.20;100724.00;;;;2078931;28;20221;-57
2022/06/15 03:34:12;;;;;;;1.30;1.20;;;;;23.20;100722.00;;;;2079024;28;20583;-57
2022/06/15 03:35:13;;;;;;;1.20;1.03;;;;;23.20;100729.00;;;;2079034;28;20284;-57
2022/06/15 03:36:13;;;;;;;1.50;1.27;;;;;23.20;100725.00;;;;2076750;28;20217;-57
2022/06/15 03:37:14;;;;;;;1.17;1.07;;;;;23.20;100729.00;;;;2077997;28;20260;-57
2022/06/15 03:38:14;;;;;;;1.37;1.27;;;;;23.20;100724.00;;;;2078447;28;20232;-58
2022/06/15 03:39:15;;;;;;;1.43;1.10;;;;;23.20;100718.00;;;;2075312;28;21078;-58
2022/06/15 03:40:16;;;;;;;1.73;1.27;;;;;23.20;100719.00;;;;2062415;28;20233;-55
2022/06/15 03:41:17;;;;;;;2.40;2.00;;;;;23.20;100728.00;;;;2061647;28;20226;-56
2022/06/15 03:42:19;;;;;;;1.63;1.30;;;;;23.20;100724.00;;;;2063362;28;20215;-57
2022/06/15 03:43:20;;;;;;;1.10;1.00;;;;;23.20;100723.00;;;;2074215;28;20701;-58
2022/06/15 03:44:20;;;;;;;1.60;1.30;;;;;23.20;100719.00;;;;2078194;28;20403;-57
2022/06/15 03:45:21;;;;;;;1.50;1.23;;;;;23.20;100723.00;;;;2077128;28;20271;-57
2022/06/15 03:46:23;;;;;;;1.40;1.23;;;;;23.20;100717.00;;;;2078031;28;20670;-57
2022/06/15 03:47:23;;;;;;;1.42;1.13;;;;;23.20;100723.00;;;;2077579;28;20213;-57
2022/06/15 03:48:23;;;;;;;1.43;1.13;;;;;23.20;100719.00;;;;2078494;28;20213;-57
2022/06/15 03:49:24;;;;;;;1.40;1.10;;;;;23.20;100721.00;;;;2078955;28;20217;-57
2022/06/15 03:50:25;;;;;;;1.23;1.13;;;;;23.20;100712.00;;;;2078836;28;20271;-56
2022/06/15 03:51:26;;;;;;;1.30;1.10;;;;;23.20;100722.00;;;;2078882;28;20237;-57
2022/06/15 03:52:26;;;;;;;1.30;1.10;;;;;23.20;100728.00;;;;2077742;28;20229;-57
2022/06/15 03:53:27;;;;;;;1.87;1.40;;;;;23.20;100718.00;;;;2077981;28;20293;-56
2022/06/15 03:54:27;;;;;;;1.30;1.10;;;;;23.20;100725.00;;;;2073088;28;20222;-57
2022/06/15 03:55:30;;;;;;;1.70;1.30;;;;;23.20;100725.00;;;;2069009;28;20221;-57
2022/06/15 03:56:47;;;;;;;2.83;1.30;;;;;23.20;100723.00;;;;2072748;28;20253;-58
2022/06/15 03:57:47;;;;;;;1.38;1.00;;;;;23.20;100714.00;;;;2069392;28;20264;-57
2022/06/15 03:58:48;;;;;;;1.40;1.30;;;;;23.20;100721.00;;;;2070426;28;20233;-57
2022/06/15 03:59:48;;;;;;;1.60;1.10;;;;;23.20;100722.00;;;;2070728;28;20218;-57
2022/06/15 04:00:49;;;;;;;1.40;1.27;;;;;23.20;100722.00;;;;2070675;28;20241;-57
2022/06/15 04:01:49;;;;;;;1.30;1.13;;;;;23.20;100720.00;;;;2069889;28;20284;-57
2022/06/15 04:02:50;;;;;;;1.80;1.50;;;;;23.20;100720.00;;;;2069843;28;20241;-57
2022/06/15 04:03:50;;;;;;;2.03;1.37;;;;;23.20;100725.00;;;;2069314;28;20218;-57
2022/06/15 04:04:50;;;;;;;2.20;1.30;;;;;23.20;100721.00;;;;2068684;28;20319;-57
2022/06/15 04:05:53;;;;;;;3.03;1.10;;;;;23.20;100725.00;;;;2060866;28;20221;-57
2022/06/15 04:06:54;;;;;;;3.28;1.60;;;;;23.20;100721.00;;;;2050371;28;20835;-57
2022/06/15 04:09:13;;;;;;;1.95;1.30;;;;;23.20;100720.00;;;;2070448;28;20597;-57
2022/06/15 04:10:14;;;;;;;1.27;1.13;;;;;23.20;100729.00;;;;2070526;28;20241;-57
2022/06/15 04:12:34;;;;;;;1.67;1.58;;;;;23.20;100723.00;;;;2070414;28;20659;-57
2022/06/15 04:13:35;;;;;;;2.03;1.57;;;;;23.20;100725.00;;;;2069980;28;20234;-56
2022/06/15 04:14:35;;;;;;;2.27;1.20;;;;;23.20;100722.00;;;;2069893;28;20971;-57
2022/06/15 04:15:36;;;;;;;1.50;1.00;;;;;23.20;100720.00;;;;2068731;28;20218;-56
2022/06/15 04:16:36;;;;;;;2.80;1.40;;;;;23.20;100718.00;;;;2076828;28;20288;-57
2022/06/15 04:17:37;;;;;;;1.30;1.17;;;;;23.20;100725.00;;;;2078229;28;20713;-57
2022/06/15 04:18:38;;;;;;;1.67;1.20;;;;;23.20;100724.00;;;;2078721;28;20220;-57
2022/06/15 04:19:38;;;;;;;3.47;1.50;;;;;23.20;100732.00;;;;2078648;28;20603;-58
2022/06/15 04:20:40;;;;;;;1.87;1.47;;;;;23.20;100721.00;;;;2077485;28;20213;-57
2022/06/15 04:21:40;;;;;;;1.55;1.40;;;;;23.20;100720.00;;;;2078162;28;20210;-57
2022/06/15 04:22:41;;;;;;;1.63;1.23;;;;;23.20;100721.00;;;;2078678;28;20221;-58
2022/06/15 04:23:41;;;;;;;1.37;1.10;;;;;23.20;100725.00;;;;2077078;28;20325;-57
2022/06/15 04:24:41;;;;;;;1.50;1.20;;;;;23.20;100724.00;;;;2077740;28;20214;-57
2022/06/15 04:25:47;;;;;;;1.50;1.40;;;;;23.20;100720.00;;;;2077181;28;20205;-57
2022/06/15 04:26:48;;;;;;;2.17;1.50;;;;;23.20;100731.00;;;;2077842;28;20260;-57
2022/06/15 04:27:48;;;;;;;1.10;1.00;;;;;23.20;100723.00;;;;2069922;28;20724;-56
2022/06/15 04:28:49;;;;;;;1.67;1.17;;;;;23.20;100714.00;;;;2077740;28;20218;-57
2022/06/15 04:29:49;;;;;;;1.30;1.13;;;;;23.20;100728.00;;;;2077636;28;20239;-57
2022/06/15 04:30:49;;;;;;;2.30;1.57;;;;;23.20;100723.00;;;;2077912;28;20213;-58
2022/06/15 04:31:50;;;;;;;1.47;1.27;;;;;23.20;100727.00;;;;2078438;28;20244;-57
2022/06/15 04:32:51;;;;;;;2.07;1.33;;;;;23.20;100713.00;;;;2078556;28;20206;-57
2022/06/15 04:33:52;;;;;;;2.13;1.42;;;;;23.20;100727.00;;;;2078004;28;20327;-57
2022/06/15 04:34:52;;;;;;;1.23;1.13;;;;;23.20;100725.00;;;;2078458;28;20315;-57
2022/06/15 04:35:53;;;;;;;1.80;1.50;;;;;23.10;100729.00;;;;2076421;28;20847;-58
2022/06/15 04:36:53;;;;;;;1.20;1.10;;;;;23.20;100724.00;;;;2069670;28;25264;-57
2022/06/15 04:37:54;;;;;;;1.60;1.50;;;;;23.20;100734.00;;;;2077856;28;20225;-57
2022/06/15 04:38:54;;;;;;;1.63;1.53;;;;;23.20;100727.00;;;;2077926;28;20237;-57
2022/06/15 04:39:55;;;;;;;1.80;1.30;;;;;23.20;100730.00;;;;2076754;28;20224;-57
2022/06/15 04:40:55;;;;;;;1.60;1.43;;;;;23.30;100728.00;;;;2077237;28;20221;-57
2022/06/15 04:41:55;;;;;;;1.50;1.33;;;;;23.30;100727.00;;;;2076838;28;20236;-57
2022/06/15 04:42:56;;;;;;;1.43;1.10;;;;;23.20;100727.00;;;;2078201;28;20559;-57
2022/06/15 04:43:56;;;;;;;1.40;1.17;;;;;23.20;100727.00;;;;2076518;28;20674;-56
2022/06/15 04:44:57;;;;;;;1.67;1.40;;;;;23.20;100737.00;;;;2077580;28;20213;-57
2022/06/15 04:45:57;;;;;;;1.67;1.30;;;;;23.20;100691.00;;;;2076758;28;20217;-56
2022/06/15 04:47:01;;;;;;;1.60;1.30;;;;;23.30;100668.00;;;;2077643;28;20581;-57
2022/06/15 04:48:01;;;;;;;1.48;1.33;;;;;23.20;100726.00;;;;2077329;28;20224;-57
2022/06/15 04:49:01;;;;;;;1.70;1.20;;;;;23.30;100730.00;;;;2069291;28;20233;-57
2022/06/15 04:50:03;;;;;;;1.80;1.40;;;;;23.20;100723.00;;;;2068779;28;20221;-58
2022/06/15 04:51:15;;;;;;;1.50;1.40;;;;;23.20;100724.00;;;;2077459;28;20221;-58
2022/06/15 04:52:16;;;;;;;2.35;1.35;;;;;23.20;100730.00;;;;2070444;28;20689;-58
2022/06/15 04:53:16;;;;;;;2.30;1.47;;;;;23.30;100728.00;;;;2070405;28;20225;-57
2022/06/15 04:54:17;;;;;;;1.73;1.10;;;;;23.20;100697.00;;;;2069289;28;20849;-57
2022/06/15 04:55:20;;;;;;;1.55;1.25;;;;;23.20;100739.00;;;;2060694;28;20230;-54
2022/06/15 04:56:21;;;;;;;2.05;1.25;;;;;23.30;100731.00;;;;2053389;28;20314;-55
2022/06/15 04:57:21;;;;;;;1.43;1.33;;;;;23.20;100732.00;;;;2053291;28;20354;-57
2022/06/15 04:58:21;;;;;;;1.60;1.40;;;;;23.20;100733.00;;;;2069441;28;20461;-56
2022/06/15 04:59:22;;;;;;;1.90;1.37;;;;;23.20;100728.00;;;;2070580;28;20217;-56
2022/06/15 05:00:23;;;;;;;1.70;1.37;;;;;23.20;100731.00;;;;2071050;28;20241;-55
2022/06/15 05:01:23;;;;;;;1.50;1.40;;;;;23.20;100731.00;;;;2070340;28;20296;-58
2022/06/15 05:02:24;;;;;;;1.27;1.17;;;;;23.20;100725.00;;;;2070048;28;20233;-58
2022/06/15 05:03:24;;;;;;;2.07;1.80;;;;;23.20;100727.00;;;;2070483;28;20314;-54
2022/06/15 05:04:27;;;;;;;2.07;1.50;;;;;23.20;100728.00;;;;2073746;28;20241;-60
2022/06/15 05:05:28;;;;;;;1.92;1.70;;;;;23.20;100726.00;;;;2062696;28;20221;-56
2022/06/15 05:06:39;;;;;;;1.73;1.43;;;;;23.30;100734.00;;;;2063500;28;25679;-56
2022/06/15 05:07:40;;;;;;;2.13;1.88;;;;;23.30;100704.00;;;;2061724;28;20245;-60
2022/06/15 05:08:41;;;;;;;1.95;1.38;;;;;23.30;100723.00;;;;2061539;28;20237;-55
2022/06/15 05:09:47;;;;;;;1.53;1.33;;;;;23.30;100723.00;;;;2067696;28;20298;-55
2022/06/15 05:10:47;;;;;;;1.65;1.20;;;;;23.30;100727.00;;;;2069631;28;20210;-57
2022/06/15 05:11:47;;;;;;;1.40;1.20;;;;;23.30;100729.00;;;;2069517;28;20212;-57
2022/06/15 05:12:48;;;;;;;1.63;1.20;;;;;23.30;100724.00;;;;2061655;28;20285;-58
2022/06/15 05:13:48;;;;;;;1.50;1.20;;;;;23.30;100726.00;;;;2073061;28;20224;-57
2022/06/15 05:14:49;;;;;;;1.50;1.20;;;;;23.30;100724.00;;;;2078040;28;20218;-57
2022/06/15 05:15:50;;;;;;;2.23;1.37;;;;;23.20;100721.00;;;;2067941;28;20332;-54
2022/06/15 05:16:51;;;;;;;2.50;1.30;;;;;23.30;100736.00;;;;2069349;28;20284;-57
2022/06/15 05:17:51;;;;;;;1.50;1.40;;;;;23.20;100727.00;;;;2075333;28;20272;-57